KONP

Newport Municipal Airport

Newport, Oregon, USA
METAR KONP 220515Z AUTO 34004KT 10SM OVC026 15/12 A3022 RMK AO2
Observed Flight Rules
Jun-22 @ 05:15 UTC (25 minutes ago) Marginal Visual Flight Rules
Wind Visibility Clouds
340° at 4 knots 10 miles
  • Overcast at 2,600' AGL
Temperatures Readings
Current 15°C / 59°F
Dewpoint 12°C / 54°F
Humidity 82%
Altimeter 30.22" Hg
Pressure 1023 hPa
Elevation 48
METAR KONP 220515Z AUTO 34004KT 10SM OVC026 15/12 A3022 RMK AO2
Observed Flight Rules
Jun-22 @ 05:15 UTC
(25 minutes ago)
MVFR
Wind Visibility
340° at 4 knots 10 miles
Clouds
  • Overcast at 2,600' AGL
Temperature Dewpoint
15°C / 59°F 12°C / 54°F
Humidity Altimeter Pressure
82% 30.22" Hg 1023 hPa